createdAt,value
2018-09-12T00:02:02.002Z,2.57
2018-09-12T00:04:30.552Z,2.40
2018-09-12T00:06:59.283Z,2.50
2018-09-12T00:09:27.870Z,2.80
2018-09-12T00:11:56.412Z,2.77
2018-09-12T00:14:24.975Z,2.80
2018-09-12T00:16:53.525Z,2.90
2018-09-12T00:19:22.780Z,2.80
2018-09-12T00:21:51.273Z,2.87
2018-09-12T00:24:19.995Z,2.83
2018-09-12T00:26:49.281Z,2.77
2018-09-12T00:29:17.978Z,2.70
2018-09-12T00:31:46.576Z,2.83
2018-09-12T00:34:15.182Z,3.10
2018-09-12T00:36:44.959Z,2.73
2018-09-12T00:39:13.630Z,2.60
2018-09-12T00:41:42.248Z,2.90
2018-09-12T00:44:10.871Z,3.00
2018-09-12T00:46:39.590Z,2.37
2018-09-12T00:49:08.143Z,3.20
2018-09-12T00:51:38.582Z,2.47
2018-09-12T00:54:07.477Z,2.37
2018-09-12T00:56:36.071Z,2.60
2018-09-12T00:59:04.646Z,2.57
2018-09-12T01:01:33.209Z,2.87
2018-09-12T01:04:01.876Z,2.90
2018-09-12T01:06:30.888Z,2.70
2018-09-12T01:08:59.458Z,2.80
2018-09-12T01:11:27.951Z,2.60
2018-09-12T01:13:56.809Z,3.07
2018-09-12T01:16:25.404Z,2.90
2018-09-12T01:18:54.285Z,2.70
2018-09-12T01:21:22.820Z,2.50
2018-09-12T01:23:51.345Z,2.73
2018-09-12T01:26:19.892Z,2.70
2018-09-12T01:28:48.607Z,3.27
2018-09-12T01:31:17.160Z,2.70
2018-09-12T01:33:45.735Z,3.10
2018-09-12T01:36:14.321Z,2.53
2018-09-12T01:38:42.901Z,2.63
2018-09-12T01:41:11.537Z,3.07
2018-09-12T01:43:40.275Z,2.67
2018-09-12T01:46:08.890Z,3.10
2018-09-12T01:48:39.078Z,2.90
2018-09-12T01:51:07.757Z,2.80
2018-09-12T01:53:36.263Z,2.90
2018-09-12T01:56:04.795Z,2.70
2018-09-12T01:58:33.570Z,2.60
2018-09-12T02:01:02.107Z,2.97
2018-09-12T02:03:30.834Z,3.00
2018-09-12T02:05:59.325Z,2.97
2018-09-12T02:08:27.820Z,2.97
2018-09-12T02:10:56.318Z,3.10
2018-09-12T02:13:25.453Z,2.80
2018-09-12T02:15:53.946Z,2.97
2018-09-12T02:18:22.467Z,3.07
2018-09-12T02:20:51.535Z,2.90
2018-09-12T02:23:20.152Z,3.20
2018-09-12T02:25:48.809Z,3.33
2018-09-12T02:28:17.684Z,2.90
2018-09-12T02:30:46.414Z,2.97
2018-09-12T02:33:15.340Z,3.13
2018-09-12T02:35:49.293Z,3.10
2018-09-12T02:38:18.429Z,3.27
2018-09-12T02:40:46.999Z,2.70
2018-09-12T02:43:15.637Z,3.23
2018-09-12T02:45:44.460Z,2.80
2018-09-12T02:48:13.064Z,3.17
2018-09-12T02:50:41.643Z,2.80
2018-09-12T02:53:10.149Z,2.83
2018-09-12T02:55:38.854Z,3.27
2018-09-12T02:58:07.376Z,2.97
2018-09-12T03:00:36.242Z,3.20
2018-09-12T03:03:04.722Z,2.70
2018-09-12T03:05:33.215Z,3.40
2018-09-12T03:08:02.530Z,2.97
2018-09-12T03:10:30.934Z,3.20
2018-09-12T03:13:00.902Z,3.20
2018-09-12T03:15:29.510Z,2.97
2018-09-12T03:17:58.052Z,3.10
2018-09-12T03:20:26.923Z,3.00
2018-09-12T03:22:55.352Z,3.13
2018-09-12T03:25:23.980Z,3.27
2018-09-12T03:27:52.626Z,3.10
2018-09-12T03:30:21.157Z,3.63
2018-09-12T03:32:49.696Z,3.33
2018-09-12T03:35:18.361Z,3.20
2018-09-12T03:37:46.909Z,2.93
2018-09-12T03:40:16.605Z,3.20
2018-09-12T03:42:45.091Z,3.30
2018-09-12T03:45:13.694Z,3.13
2018-09-12T03:47:42.223Z,3.70
2018-09-12T03:50:10.773Z,2.83
2018-09-12T03:52:39.444Z,3.13
2018-09-12T03:55:08.058Z,3.27
2018-09-12T03:57:36.540Z,3.33
2018-09-12T04:00:05.868Z,3.53
2018-09-12T04:02:34.981Z,3.20
2018-09-12T04:05:03.597Z,3.40
2018-09-12T04:07:32.189Z,3.27
2018-09-12T04:10:00.799Z,3.10
2018-09-12T04:12:29.584Z,2.97
2018-09-12T04:14:58.096Z,3.40
2018-09-12T04:17:35.471Z,3.20
2018-09-12T04:20:04.257Z,3.30
2018-09-12T04:22:33.305Z,3.10
2018-09-12T04:25:01.859Z,3.20
2018-09-12T04:27:30.789Z,3.27
2018-09-12T04:29:59.594Z,3.70
2018-09-12T04:32:28.091Z,3.10
2018-09-12T04:34:56.738Z,3.50
2018-09-12T04:37:25.348Z,3.40
2018-09-12T04:39:54.510Z,3.73
2018-09-12T04:42:23.034Z,3.70
2018-09-12T04:44:52.227Z,3.10
2018-09-12T04:47:21.147Z,3.33
2018-09-12T04:49:49.762Z,3.27
2018-09-12T04:52:18.414Z,3.60
2018-09-12T04:54:47.175Z,3.30
2018-09-12T04:57:15.657Z,3.17
2018-09-12T04:59:44.257Z,3.13
2018-09-12T05:02:12.861Z,3.13
2018-09-12T05:04:41.373Z,3.43
2018-09-12T05:07:09.916Z,3.63
2018-09-12T05:09:38.855Z,3.53
2018-09-12T05:12:07.388Z,3.67
2018-09-12T05:14:35.983Z,3.57
2018-09-12T05:17:04.571Z,3.63
2018-09-12T05:19:33.035Z,3.30
2018-09-12T05:22:01.607Z,3.40
2018-09-12T05:24:30.124Z,3.03
2018-09-12T05:26:58.618Z,3.30
2018-09-12T05:29:27.145Z,3.40
2018-09-12T05:31:55.689Z,3.30
2018-09-12T05:34:24.258Z,3.93
2018-09-12T05:36:53.207Z,3.50
2018-09-12T05:39:21.732Z,3.70
2018-09-12T05:41:50.398Z,3.53
2018-09-12T05:44:19.047Z,3.70
2018-09-12T05:46:48.881Z,3.43
2018-09-12T05:49:17.544Z,3.90
2018-09-12T05:51:46.157Z,4.13
2018-09-12T05:54:14.823Z,3.57
2018-09-12T05:56:43.495Z,3.60
2018-09-12T05:59:12.053Z,3.53
2018-09-12T06:01:40.785Z,4.40
2018-09-12T06:04:09.269Z,3.80
2018-09-12T06:06:39.033Z,3.43
2018-09-12T06:09:08.973Z,3.70
2018-09-12T06:11:37.721Z,3.40
2018-09-12T06:14:07.089Z,3.77
2018-09-12T06:16:35.646Z,3.30
2018-09-12T06:19:04.235Z,3.27
2018-09-12T06:21:32.772Z,3.50
2018-09-12T06:24:01.797Z,3.43
2018-09-12T06:26:30.351Z,3.70
2018-09-12T06:28:58.976Z,3.17
2018-09-12T06:31:27.559Z,3.23
2018-09-12T06:33:56.134Z,3.10
2018-09-12T06:36:24.679Z,3.10
2018-09-12T06:38:53.220Z,3.20
2018-09-12T06:41:22.457Z,2.87
2018-09-12T06:43:51.205Z,3.30
2018-09-12T06:46:20.305Z,3.33
2018-09-12T06:48:48.851Z,3.10
2018-09-12T06:51:17.635Z,2.90
2018-09-12T06:53:46.231Z,3.30
2018-09-12T06:56:15.886Z,3.10
2018-09-12T06:58:44.620Z,3.10
2018-09-12T07:01:13.357Z,3.40
2018-09-12T07:03:41.964Z,3.47
2018-09-12T07:06:11.103Z,3.00
2018-09-12T07:08:40.126Z,2.80
2018-09-12T07:11:08.684Z,3.30
2018-09-12T07:13:37.976Z,2.90
2018-09-12T07:16:06.525Z,2.87
2018-09-12T07:18:35.108Z,3.53
2018-09-12T07:21:03.935Z,3.27
2018-09-12T07:23:32.661Z,2.80
2018-09-12T07:26:01.361Z,2.73
2018-09-12T07:28:29.898Z,2.80
2018-09-12T07:30:58.384Z,2.87
2018-09-12T07:33:26.931Z,2.77
2018-09-12T07:35:55.556Z,2.60
2018-09-12T07:38:24.063Z,2.60
2018-09-12T07:40:52.835Z,2.97
2018-09-12T07:43:21.468Z,3.17
2018-09-12T07:45:49.978Z,2.77
2018-09-12T07:48:18.634Z,2.60
2018-09-12T07:50:49.397Z,3.27
2018-09-12T07:53:18.802Z,2.90
2018-09-12T07:55:47.644Z,2.90
2018-09-12T07:58:16.388Z,2.53
2018-09-12T08:00:44.942Z,2.50
2018-09-12T08:04:52.514Z,2.67
2018-09-12T08:07:21.558Z,3.13
2018-09-12T08:09:50.194Z,2.83
2018-09-12T08:12:18.851Z,3.00
2018-09-12T08:14:48.656Z,2.80
2018-09-12T08:17:18.881Z,2.90
2018-09-12T08:19:47.586Z,2.90
2018-09-12T08:22:16.119Z,2.80
2018-09-12T08:24:45.033Z,2.97
2018-09-12T08:27:14.102Z,2.87
2018-09-12T08:29:43.876Z,2.80
2018-09-12T08:32:13.664Z,2.67
2018-09-12T08:34:43.592Z,2.73
2018-09-12T08:37:12.299Z,2.47
2018-09-12T08:39:42.245Z,2.50
2018-09-12T08:42:11.304Z,2.93
2018-09-12T08:44:40.355Z,2.70
2018-09-12T08:47:10.325Z,2.80
2018-09-12T08:49:39.967Z,2.47
2018-09-12T08:52:08.501Z,2.47
2018-09-12T08:54:37.308Z,2.97
2018-09-12T08:57:05.897Z,2.50
2018-09-12T08:59:34.394Z,2.30
2018-09-12T09:02:03.304Z,2.37
2018-09-12T09:04:32.049Z,2.77
2018-09-12T09:07:00.596Z,2.73
2018-09-12T09:09:29.443Z,2.40
2018-09-12T09:11:58.340Z,3.10
2018-09-12T09:14:26.946Z,2.77
2018-09-12T09:16:55.696Z,2.70
2018-09-12T09:19:24.210Z,2.73
2018-09-12T09:21:52.896Z,2.70
2018-09-12T09:24:21.416Z,2.27
2018-09-12T09:26:50.016Z,2.63
2018-09-12T09:29:19.121Z,2.90
2018-09-12T09:31:47.603Z,2.70
2018-09-12T09:34:17.451Z,2.53
2018-09-12T09:36:46.589Z,2.60
2018-09-12T09:39:15.226Z,2.73
2018-09-12T09:41:44.279Z,2.70
2018-09-12T09:44:12.843Z,2.53
2018-09-12T09:46:41.476Z,2.93
2018-09-12T09:49:10.069Z,2.70
2018-09-12T09:51:39.737Z,2.80
2018-09-12T09:54:08.336Z,2.80
2018-09-12T09:56:36.835Z,2.93
2018-09-12T09:59:05.392Z,2.87
2018-09-12T10:02:38.353Z,2.63
2018-09-12T10:05:13.049Z,2.70
2018-09-12T10:07:46.766Z,2.77
2018-09-12T10:10:15.311Z,2.67
2018-09-12T10:12:46.085Z,2.67
2018-09-12T10:15:17.468Z,2.73
2018-09-12T10:17:46.727Z,2.60
2018-09-12T10:20:15.496Z,2.67
2018-09-12T10:22:44.119Z,2.17
2018-09-12T10:25:12.878Z,2.30
2018-09-12T10:27:41.703Z,2.50
2018-09-12T10:30:10.717Z,2.47
2018-09-12T10:32:39.363Z,2.80
2018-09-12T10:35:07.860Z,2.40
2018-09-12T10:37:37.037Z,2.80
2018-09-12T10:40:08.736Z,2.70
2018-09-12T10:42:37.294Z,2.43
2018-09-12T10:45:07.074Z,2.23
2018-09-12T10:47:35.940Z,2.27
2018-09-12T10:50:04.583Z,2.70
2018-09-12T10:52:33.106Z,2.53
2018-09-12T10:55:02.253Z,2.60
2018-09-12T10:57:30.801Z,2.80
2018-09-12T10:59:59.366Z,2.57
2018-09-12T11:02:27.909Z,2.60
2018-09-12T11:04:56.770Z,2.60
2018-09-12T11:07:25.325Z,2.63
2018-09-12T11:09:54.015Z,2.53
2018-09-12T11:12:22.497Z,2.60
2018-09-12T11:14:51.393Z,2.50
2018-09-12T11:17:19.975Z,2.30
2018-09-12T11:19:48.615Z,2.57
2018-09-12T11:22:17.280Z,2.23
2018-09-12T11:24:46.733Z,2.57
2018-09-12T11:27:16.079Z,2.67
2018-09-12T11:29:45.002Z,2.60
2018-09-12T11:32:14.120Z,2.50
2018-09-12T11:34:42.930Z,2.60
2018-09-12T11:37:12.974Z,2.50
2018-09-12T11:39:41.700Z,2.30
2018-09-12T11:42:10.597Z,2.40
2018-09-12T11:44:39.253Z,2.20
2018-09-12T11:47:07.868Z,2.60
2018-09-12T11:49:36.526Z,2.53
2018-09-12T11:52:05.150Z,2.60
2018-09-12T11:54:33.676Z,2.57
2018-09-12T11:57:02.209Z,2.53
2018-09-12T11:59:30.819Z,2.70
2018-09-12T12:01:59.362Z,2.53
2018-09-12T12:04:27.883Z,2.57
2018-09-12T12:06:56.911Z,2.23
2018-09-12T12:09:25.432Z,2.60
2018-09-12T12:11:53.926Z,2.80
2018-09-12T12:14:23.230Z,2.70
2018-09-12T12:16:51.775Z,2.37
2018-09-12T12:19:20.404Z,2.50
2018-09-12T12:21:49.006Z,2.30
2018-09-12T12:24:18.095Z,2.23
2018-09-12T12:26:47.029Z,2.30
2018-09-12T12:29:15.543Z,2.40
2018-09-12T12:31:44.495Z,2.20
2018-09-12T12:34:13.482Z,2.30
2018-09-12T12:36:42.611Z,2.43
2018-09-12T12:39:12.355Z,2.33
2018-09-12T12:41:40.985Z,2.40
2018-09-12T12:44:09.617Z,2.50
2018-09-12T12:46:38.244Z,2.60
2018-09-12T12:49:06.851Z,2.40
2018-09-12T12:51:35.908Z,2.10
2018-09-12T12:54:04.521Z,2.00
2018-09-12T12:56:33.148Z,2.20
2018-09-12T12:59:01.699Z,2.33
2018-09-12T13:01:30.259Z,2.10
2018-09-12T13:03:58.827Z,2.37
2018-09-12T13:06:27.749Z,2.10
2018-09-12T13:08:56.631Z,2.23
2018-09-12T13:11:25.565Z,2.20
2018-09-12T13:13:54.199Z,2.00
2018-09-12T13:16:22.859Z,2.43
2018-09-12T13:18:51.461Z,2.43
2018-09-12T13:21:20.080Z,2.10
2018-09-12T13:23:48.652Z,2.30
2018-09-12T13:26:17.272Z,2.13
2018-09-12T13:28:45.959Z,2.70
2018-09-12T13:31:14.834Z,2.37
2018-09-12T13:33:43.485Z,2.30
2018-09-12T13:36:13.120Z,2.30
2018-09-12T13:38:42.021Z,2.70
2018-09-12T13:41:10.666Z,3.53
2018-09-12T13:43:39.446Z,2.60
2018-09-12T13:46:08.286Z,2.63
2018-09-12T13:48:37.015Z,2.30
2018-09-12T13:51:05.608Z,2.43
2018-09-12T13:53:34.131Z,2.37
2018-09-12T13:56:02.758Z,2.50
2018-09-12T13:58:31.264Z,2.37
2018-09-12T14:00:59.981Z,2.57
2018-09-12T14:03:28.741Z,2.73
2018-09-12T14:05:57.305Z,2.60
2018-09-12T14:08:25.854Z,2.63
2018-09-12T14:10:54.385Z,3.00
2018-09-12T14:13:22.912Z,2.70
2018-09-12T14:15:51.742Z,3.40
2018-09-12T14:18:20.749Z,2.77
2018-09-12T14:20:49.677Z,2.90
2018-09-12T14:23:18.967Z,2.97
2018-09-12T14:25:47.497Z,2.70
2018-09-12T14:28:16.206Z,3.20
2018-09-12T14:30:44.822Z,3.10
2018-09-12T14:33:13.502Z,3.30
2018-09-12T14:35:42.136Z,3.20
2018-09-12T14:38:11.118Z,3.43
2018-09-12T14:40:40.484Z,3.20
2018-09-12T14:43:09.024Z,3.27
2018-09-12T14:45:37.629Z,3.13
2018-09-12T14:48:06.196Z,3.20
2018-09-12T14:50:34.758Z,3.50
2018-09-12T14:53:03.409Z,3.33
2018-09-12T14:55:31.984Z,3.50
2018-09-12T14:58:00.783Z,3.63
2018-09-12T15:00:29.451Z,3.53
2018-09-12T15:02:59.079Z,3.53
2018-09-12T15:05:27.826Z,3.47
2018-09-12T15:07:57.198Z,3.03
2018-09-12T15:10:26.449Z,3.50
2018-09-12T15:12:54.953Z,3.60
2018-09-12T15:15:23.574Z,3.43
2018-09-12T15:17:52.306Z,3.50
2018-09-12T15:20:20.790Z,4.10
2018-09-12T15:22:49.931Z,3.73
2018-09-12T15:25:18.534Z,3.70
2018-09-12T15:27:47.207Z,3.80
2018-09-12T15:30:18.442Z,3.57
2018-09-12T15:32:46.970Z,3.30
2018-09-12T15:35:15.843Z,4.30
2018-09-12T15:37:44.948Z,5.73
2018-09-12T15:40:14.141Z,5.97
2018-09-12T15:42:43.304Z,5.53
2018-09-12T15:45:11.886Z,5.27
2018-09-12T15:47:40.719Z,6.23
2018-09-12T15:50:09.259Z,6.90
2018-09-12T15:52:39.130Z,7.53
2018-09-12T15:55:07.667Z,7.37
2018-09-12T15:57:36.323Z,7.87
2018-09-12T16:00:05.148Z,7.73
2018-09-12T16:02:33.845Z,7.67
2018-09-12T16:05:02.459Z,7.60
2018-09-12T16:07:31.002Z,9.03
2018-09-12T16:09:59.539Z,9.13
2018-09-12T16:12:28.542Z,10.70
2018-09-12T16:14:57.125Z,10.10
2018-09-12T16:17:26.319Z,11.30
2018-09-12T16:19:55.032Z,12.03
2018-09-12T16:22:23.740Z,11.60
2018-09-12T16:24:52.239Z,10.73
2018-09-12T16:27:21.240Z,10.93
2018-09-12T16:29:49.854Z,11.93
2018-09-12T16:32:18.452Z,10.63
2018-09-12T16:34:48.355Z,11.23
2018-09-12T16:37:16.952Z,11.07
2018-09-12T16:39:46.225Z,10.13
2018-09-12T16:42:14.818Z,10.93
2018-09-12T16:44:43.389Z,9.33
2018-09-12T16:47:12.043Z,11.17
2018-09-12T16:49:41.200Z,11.90
2018-09-12T16:52:10.336Z,13.37
2018-09-12T16:54:40.324Z,14.07
2018-09-12T16:57:08.896Z,13.83
2018-09-12T16:59:38.065Z,13.27
2018-09-12T17:02:06.632Z,13.13
2018-09-12T17:04:35.221Z,13.67
2018-09-12T17:07:03.825Z,13.23
2018-09-12T17:09:32.575Z,12.60
2018-09-12T17:12:01.538Z,12.53
2018-09-12T17:14:30.067Z,12.90
2018-09-12T17:16:58.661Z,12.53
2018-09-12T17:19:27.241Z,14.90
2018-09-12T17:21:55.884Z,15.20
2018-09-12T17:24:24.493Z,15.63
2018-09-12T17:26:53.037Z,15.10
2018-09-12T17:29:21.605Z,14.63
2018-09-12T17:31:50.207Z,13.47
2018-09-12T17:34:25.516Z,13.87
2018-09-12T17:36:54.010Z,14.03
2018-09-12T17:39:22.479Z,12.87
2018-09-12T17:41:51.043Z,12.43
2018-09-12T17:44:19.722Z,12.80
2018-09-12T17:46:48.374Z,14.90
2018-09-12T17:49:16.890Z,13.73
2018-09-12T17:51:45.837Z,14.03
2018-09-12T17:54:14.586Z,13.83
2018-09-12T17:56:43.220Z,13.80
2018-09-12T17:59:11.796Z,13.33
2018-09-12T18:01:40.716Z,13.37
2018-09-12T18:04:09.245Z,12.53
2018-09-12T18:06:37.867Z,12.30
2018-09-12T18:09:08.514Z,12.30
2018-09-12T18:11:38.032Z,14.00
2018-09-12T18:14:06.558Z,12.73
2018-09-12T18:16:35.083Z,14.23
2018-09-12T18:19:03.598Z,13.83
2018-09-12T18:21:32.188Z,13.43
2018-09-12T18:24:00.743Z,12.43
2018-09-12T18:26:29.274Z,14.00
2018-09-12T18:28:57.879Z,12.87
2018-09-12T18:31:26.463Z,12.33
2018-09-12T18:33:55.367Z,12.13
2018-09-12T18:36:23.881Z,12.63
2018-09-12T18:38:52.365Z,12.73
2018-09-12T18:41:20.939Z,12.37
2018-09-12T18:43:49.778Z,12.63
2018-09-12T18:46:18.289Z,11.67
2018-09-12T18:48:46.963Z,12.27
2018-09-12T18:51:15.488Z,13.03
2018-09-12T18:53:44.158Z,10.50
2018-09-12T18:56:12.712Z,10.60
2018-09-12T18:58:41.278Z,11.80
2018-09-12T19:01:09.765Z,11.40
2018-09-12T19:03:38.766Z,12.10
2018-09-12T19:06:07.308Z,11.43
2018-09-12T19:08:35.886Z,10.60
2018-09-12T19:11:04.423Z,12.00
2018-09-12T19:13:32.955Z,11.43
2018-09-12T19:16:01.475Z,11.47
2018-09-12T19:18:30.093Z,11.57
2018-09-12T19:20:58.600Z,11.23
2018-09-12T19:23:27.540Z,10.80
2018-09-12T19:25:56.052Z,10.03
2018-09-12T19:28:24.605Z,10.90
2018-09-12T19:30:53.131Z,10.97
2018-09-12T19:33:21.668Z,10.67
2018-09-12T19:35:50.201Z,10.90
2018-09-12T19:38:18.763Z,11.03
2018-09-12T19:40:47.776Z,10.67
2018-09-12T19:43:16.567Z,10.07
2018-09-12T19:45:45.802Z,9.77
2018-09-12T19:48:14.330Z,9.33
2018-09-12T19:50:42.926Z,8.97
2018-09-12T19:53:11.438Z,7.83
2018-09-12T19:55:40.136Z,7.20
2018-09-12T19:58:08.697Z,6.60
2018-09-12T20:00:37.212Z,5.77
2018-09-12T20:03:05.958Z,6.30
2018-09-12T20:05:34.492Z,6.03
2018-09-12T20:08:03.001Z,5.60
2018-09-12T20:10:31.679Z,5.30
2018-09-12T20:13:00.238Z,5.87
2018-09-12T20:15:28.737Z,4.63
2018-09-12T20:17:57.237Z,4.40
2018-09-12T20:20:25.771Z,5.23
2018-09-12T20:22:54.349Z,4.77
2018-09-12T20:25:25.384Z,4.83
2018-09-12T20:27:56.332Z,4.77
2018-09-12T20:30:28.314Z,4.73
2018-09-12T20:32:59.458Z,5.13
2018-09-12T20:35:30.123Z,5.73
2018-09-12T20:38:03.100Z,6.10
2018-09-12T20:40:32.959Z,6.13
2018-09-12T20:43:03.036Z,6.80
2018-09-12T20:45:34.187Z,6.00
2018-09-12T20:48:04.140Z,6.83
2018-09-12T20:50:33.933Z,12.37
2018-09-12T20:53:03.814Z,6.03
2018-09-12T20:55:34.887Z,6.77
2018-09-12T20:58:05.540Z,6.70
2018-09-12T21:00:35.736Z,6.03
2018-09-12T21:03:05.431Z,6.33
2018-09-12T21:05:35.737Z,6.10
2018-09-12T21:08:05.603Z,6.77
2018-09-12T21:10:36.852Z,6.97
2018-09-12T21:13:07.552Z,6.40
2018-09-12T21:15:38.308Z,7.30
2018-09-12T21:18:10.549Z,6.40
2018-09-12T21:20:41.980Z,6.07
2018-09-12T21:23:11.738Z,6.67
2018-09-12T21:25:43.130Z,6.00
2018-09-12T21:28:13.019Z,5.33
2018-09-12T21:30:43.617Z,5.87
2018-09-12T21:33:13.246Z,5.40
2018-09-12T21:35:41.984Z,4.87
2018-09-12T21:38:20.311Z,5.00
2018-09-12T21:40:54.842Z,5.30
2018-09-12T21:43:24.813Z,5.70
2018-09-12T21:45:53.419Z,5.13
2018-09-12T21:48:21.945Z,11.97
2018-09-12T21:50:50.562Z,10.17
2018-09-12T21:53:19.073Z,6.13
2018-09-12T21:55:47.603Z,5.80
2018-09-12T21:58:16.582Z,5.47
2018-09-12T22:00:45.731Z,5.83
2018-09-12T22:03:14.431Z,6.33
2018-09-12T22:05:43.010Z,7.33
2018-09-12T22:08:12.008Z,7.27
2018-09-12T22:10:40.915Z,7.63
2018-09-12T22:13:12.281Z,8.30
2018-09-12T22:15:41.232Z,7.87
2018-09-12T22:18:09.809Z,7.37
2018-09-12T22:20:38.700Z,8.23
2018-09-12T22:23:07.288Z,8.67
2018-09-12T22:25:35.862Z,9.30
2018-09-12T22:28:04.793Z,9.17
2018-09-12T22:30:33.356Z,9.77
2018-09-12T22:33:01.843Z,9.37
2018-09-12T22:35:30.318Z,9.43
2018-09-12T22:38:00.029Z,9.73
2018-09-12T22:40:28.883Z,9.30
2018-09-12T22:42:57.501Z,10.73
2018-09-12T22:45:30.535Z,9.97
2018-09-12T22:47:59.047Z,10.80
2018-09-12T22:50:27.604Z,10.77
2018-09-12T22:52:56.343Z,9.63
2018-09-12T22:55:25.006Z,9.80
2018-09-12T22:57:53.768Z,9.27
2018-09-12T23:00:22.520Z,9.53
2018-09-12T23:02:51.102Z,9.17
2018-09-12T23:05:19.616Z,9.03
2018-09-12T23:07:48.271Z,9.00
2018-09-12T23:10:16.835Z,9.13
2018-09-12T23:12:45.459Z,8.93
2018-09-12T23:15:14.038Z,9.00
2018-09-12T23:17:42.859Z,9.00
2018-09-12T23:20:11.473Z,9.80
2018-09-12T23:22:40.261Z,8.93
2018-09-12T23:25:09.056Z,8.97
2018-09-12T23:27:37.694Z,9.00
2018-09-12T23:30:06.161Z,8.53
2018-09-12T23:32:34.701Z,9.13
2018-09-12T23:35:03.225Z,9.00
2018-09-12T23:37:31.715Z,9.30
2018-09-12T23:40:00.225Z,9.37
2018-09-12T23:42:28.766Z,9.70
2018-09-12T23:44:57.271Z,11.23
2018-09-12T23:47:25.804Z,9.27
2018-09-12T23:49:54.878Z,10.40
2018-09-12T23:52:23.364Z,10.90
2018-09-12T23:54:51.868Z,10.53
2018-09-12T23:57:20.415Z,11.83
2018-09-12T23:59:48.933Z,10.70
